Time;durP1;ratioP1;P1;durP2;ratioP2;P2;SDS_P1;SDS_P2;PMS_P1;PMS_P2;Temp;Humidity;BMP_temperature;BMP_pressure;BME280_temperature;BME280_humidity;BME280_pressure;Samples;Min_cycle;Max_cycle;Signal;HPM_P1;HPM_P2
2024/04/13 00:00:56;;;;;;;;;;;;;;;23.65;43.81;95426.47;5457056;26;6938;-61
2024/04/13 00:03:26;;;;;;;;;;;;;;;23.71;43.81;95437.53;5446831;26;7367;-61
2024/04/13 00:05:52;;;;;;;;;;;;;;;23.68;43.65;95425.53;5427975;26;7105;-61
2024/04/13 00:08:19;;;;;;;;;;;;;;;23.68;43.65;95420.03;5435799;26;7084;-61
2024/04/13 00:10:48;;;;;;;;;;;;;;;23.64;43.90;95415.97;5428923;26;8031;-61
2024/04/13 00:13:16;;;;;;;;;;;;;;;23.63;43.70;95408.94;5438089;26;7781;-61
2024/04/13 00:15:56;;;;;;;;;;;;;;;23.68;43.72;95419.28;5413501;26;7061;-61
2024/04/13 00:18:22;;;;;;;;;;;;;;;23.64;43.63;95413.22;5426756;26;7061;-61
2024/04/13 00:20:52;;;;;;;;;;;;;;;23.67;43.56;95420.50;5460600;26;7057;-61
2024/04/13 00:23:21;;;;;;;;;;;;;;;23.57;43.95;95400.63;5480937;26;7483;-61
2024/04/13 00:25:51;;;;;;;;;;;;;;;23.64;43.55;95405.72;5413557;26;8998;-61
2024/04/13 00:28:21;;;;;;;;;;;;;;;23.58;43.53;95396.63;5452987;26;9471;-62
2024/04/13 00:30:50;;;;;;;;;;;;;;;23.60;43.54;95399.66;5435879;26;7347;-61
2024/04/13 00:33:16;;;;;;;;;;;;;;;23.53;43.65;95385.56;5453787;26;7160;-61
2024/04/13 00:35:44;;;;;;;;;;;;;;;23.63;43.80;95403.44;5431700;26;7108;-61
2024/04/13 00:38:13;;;;;;;;;;;;;;;23.55;43.60;95394.09;5436713;26;9042;-61
2024/04/13 00:40:42;;;;;;;;;;;;;;;23.53;43.62;95388.31;5432015;26;7512;-62
2024/04/13 00:43:12;;;;;;;;;;;;;;;23.61;43.67;95392.19;5466080;26;8783;-61
2024/04/13 00:45:45;;;;;;;;;;;;;;;23.55;43.39;95377.59;5452625;26;6997;-61
2024/04/13 00:48:22;;;;;;;;;;;;;;;23.59;43.44;95381.69;5414101;26;7214;-62
2024/04/13 00:50:58;;;;;;;;;;;;;;;23.57;43.58;95381.41;5412987;26;7341;-61
2024/04/13 00:53:28;;;;;;;;;;;;;;;23.53;43.49;95371.84;5446424;26;7269;-62
2024/04/13 00:56:11;;;;;;;;;;;;;;;23.55;43.70;95370.13;5452798;26;9225;-61
2024/04/13 00:58:40;;;;;;;;;;;;;;;23.52;43.66;95365.56;5458096;26;7036;-61
2024/04/13 01:01:10;;;;;;;;;;;;;;;23.49;43.64;95354.78;5452640;26;7715;-61
2024/04/13 01:03:48;;;;;;;;;;;;;;;23.46;43.32;95350.25;5445672;26;7071;-61
2024/04/13 01:06:20;;;;;;;;;;;;;;;23.47;43.84;95355.25;5447752;26;7081;-61
2024/04/13 01:08:56;;;;;;;;;;;;;;;23.54;43.65;95368.59;5401385;26;7426;-61
2024/04/13 01:11:24;;;;;;;;;;;;;;;23.51;43.37;95368.81;5438310;26;7308;-61
2024/04/13 01:13:50;;;;;;;;;;;;;;;23.49;43.71;95349.31;5416918;26;6948;-62
2024/04/13 01:16:30;;;;;;;;;;;;;;;23.50;43.65;95364.53;5427095;26;7012;-61
2024/04/13 01:19:04;;;;;;;;;;;;;;;23.46;43.68;95355.72;5450835;26;7111;-61
2024/04/13 01:22:02;;;;;;;;;;;;;;;23.51;43.58;95360.56;5425146;26;9062;-61
2024/04/13 01:24:40;;;;;;;;;;;;;;;23.50;43.75;95356.28;5448436;26;7043;-61
2024/04/13 01:27:16;;;;;;;;;;;;;;;23.49;43.59;95361.03;5413880;26;8312;-61
2024/04/13 01:29:43;;;;;;;;;;;;;;;23.45;43.96;95354.19;5441381;26;7041;-61
2024/04/13 01:32:10;;;;;;;;;;;;;;;23.43;43.59;95356.66;5473816;26;6982;-61
2024/04/13 01:34:38;;;;;;;;;;;;;;;23.47;43.81;95355.25;5414566;26;7110;-59
2024/04/13 01:37:27;;;;;;;;;;;;;;;23.45;43.67;95360.47;5396251;26;8502;-59
2024/04/13 01:39:53;;;;;;;;;;;;;;;23.39;43.65;95350.59;5424155;26;7267;-59
2024/04/13 01:42:20;;;;;;;;;;;;;;;23.45;43.72;95359.69;5477684;26;7294;-60
2024/04/13 01:45:02;;;;;;;;;;;;;;;23.40;43.47;95357.63;5434663;26;7321;-59
2024/04/13 01:47:33;;;;;;;;;;;;;;;23.42;43.37;95368.91;5444603;26;7401;-59
2024/04/13 01:49:59;;;;;;;;;;;;;;;23.40;43.71;95363.88;5445349;26;7122;-59
2024/04/13 01:52:25;;;;;;;;;;;;;;;23.39;43.51;95350.59;5418896;26;7405;-59
2024/04/13 01:54:51;;;;;;;;;;;;;;;23.40;43.75;95357.63;5444776;26;7081;-59
2024/04/13 01:57:18;;;;;;;;;;;;;;;23.36;43.99;95351.56;5440058;26;8601;-59
2024/04/13 02:00:07;;;;;;;;;;;;;;;23.42;43.70;95355.94;5414544;26;7274;-59
2024/04/13 02:03:02;;;;;;;;;;;;;;;23.43;43.84;95357.44;5438735;26;7165;-59
2024/04/13 02:05:34;;;;;;;;;;;;;;;23.40;43.98;95350.16;5459272;26;7200;-60
2024/04/13 02:08:38;;;;;;;;;;;;;;;23.41;44.05;95356.38;5447001;26;7124;-59
2024/04/13 02:11:18;;;;;;;;;;;;;;;23.35;43.94;95350.03;5446506;26;7188;-59
2024/04/13 02:13:47;;;;;;;;;;;;;;;23.33;43.46;95350.53;5411447;26;7077;-59
2024/04/13 02:16:24;;;;;;;;;;;;;;;23.37;43.71;95359.31;5430884;26;7040;-59
2024/04/13 02:18:57;;;;;;;;;;;;;;;23.34;43.43;95343.06;5402210;26;9518;-59
2024/04/13 02:21:24;;;;;;;;;;;;;;;23.38;43.77;95352.59;5411318;26;7306;-59
2024/04/13 02:24:03;;;;;;;;;;;;;;;23.30;43.73;95336.94;5433368;26;7350;-59
2024/04/13 02:27:07;;;;;;;;;;;;;;;23.38;43.95;95357.34;5451838;26;7044;-59
2024/04/13 02:29:50;;;;;;;;;;;;;;;23.34;43.51;95351.28;5309577;26;7236;-59
2024/04/13 02:32:19;;;;;;;;;;;;;;;23.30;43.86;95356.16;5341134;26;7484;-59
2024/04/13 02:34:48;;;;;;;;;;;;;;;23.33;43.53;95363.47;5365891;26;7071;-60
2024/04/13 02:37:46;;;;;;;;;;;;;;;23.34;43.57;95360.25;5302418;26;7468;-60
2024/04/13 02:40:53;;;;;;;;;;;;;;;23.33;43.49;95352.47;5244896;27;7295;-59
2024/04/13 02:43:21;;;;;;;;;;;;;;;23.27;43.81;95350.38;5175365;27;7070;-60
2024/04/13 02:45:49;;;;;;;;;;;;;;;23.25;43.74;95344.59;5197769;27;6974;-60
2024/04/13 02:48:47;;;;;;;;;;;;;;;23.33;43.52;95353.28;5199634;27;7679;-60
2024/04/13 02:51:33;;;;;;;;;;;;;;;23.32;43.83;95357.19;5171137;27;7556;-60
2024/04/13 02:54:11;;;;;;;;;;;;;;;23.29;43.92;95357.41;5173101;27;7559;-58
2024/04/13 02:56:47;;;;;;;;;;;;;;;23.29;44.11;95357.41;5172613;27;7800;-59
2024/04/13 02:59:31;;;;;;;;;;;;;;;23.30;44.12;95364.38;5172262;27;7878;-59
2024/04/13 03:02:17;;;;;;;;;;;;;;;23.30;43.71;95370.66;5172395;27;7559;-59
2024/04/13 03:05:17;;;;;;;;;;;;;;;23.31;43.96;95365.91;5235333;27;8544;-59
2024/04/13 03:07:54;;;;;;;;;;;;;;;23.21;44.11;95352.28;5204923;27;7540;-59
2024/04/13 03:10:21;;;;;;;;;;;;;;;23.26;43.97;95364.59;5195112;27;7076;-59
2024/04/13 03:12:53;;;;;;;;;;;;;;;23.25;44.11;95363.06;5200195;27;7758;-58
2024/04/13 03:15:29;;;;;;;;;;;;;;;23.28;43.72;95362.13;5236409;26;7140;-59
2024/04/13 03:18:46;;;;;;;;;;;;;;;23.28;43.90;95367.63;5309247;26;7754;-59
2024/04/13 03:21:14;;;;;;;;;;;;;;;23.25;43.84;95360.31;5210635;27;7956;-59
2024/04/13 03:24:01;;;;;;;;;;;;;;;23.24;43.53;95362.31;5238624;27;7107;-59
2024/04/13 03:27:01;;;;;;;;;;;;;;;23.24;44.19;95367.03;5245819;27;7487;-59
2024/04/13 03:29:45;;;;;;;;;;;;;;;23.22;43.92;95358.53;5272472;27;9425;-59
2024/04/13 03:32:13;;;;;;;;;;;;;;;23.19;43.70;95360.22;5213793;27;7303;-59
2024/04/13 03:34:39;;;;;;;;;;;;;;;23.20;43.38;95363.75;5238080;27;7351;-58
2024/04/13 03:37:08;;;;;;;;;;;;;;;23.14;43.88;95363.63;5210656;27;7468;-59
2024/04/13 03:39:34;;;;;;;;;;;;;;;23.19;44.07;95368.47;5238453;27;8987;-59
2024/04/13 03:42:02;;;;;;;;;;;;;;;23.16;43.72;95372.13;5238134;27;7037;-59
2024/04/13 03:44:47;;;;;;;;;;;;;;;23.21;44.12;95371.50;5237678;27;7324;-59
2024/04/13 03:48:02;;;;;;;;;;;;;;;23.20;44.04;95364.50;5237682;27;7503;-61
2024/04/13 03:50:43;;;;;;;;;;;;;;;23.15;43.80;95364.38;5237629;27;7976;-64
2024/04/13 03:53:24;;;;;;;;;;;;;;;23.21;45.30;95374.22;5213579;27;7665;-62
2024/04/13 03:55:57;;;;;;;;;;;;;;;23.25;46.18;95368.53;5238577;27;8169;-62
2024/04/13 03:58:28;;;;;;;;;;;;;;;23.59;65.29;95398.16;5322228;26;9011;-63
2024/04/13 04:01:02;;;;;;;;;;;;;;;23.90;65.29;95373.69;5346698;26;8609;-63
2024/04/13 04:03:44;;;;;;;;;;;;;;;24.42;66.27;95396.00;5308804;26;8440;-58
2024/04/13 04:06:21;;;;;;;;;;;;;;;24.62;63.22;95376.75;5425321;26;7189;-59
2024/04/13 04:08:49;;;;;;;;;;;;;;;24.94;60.94;95399.69;5439557;26;7127;-56
2024/04/13 04:11:16;;;;;;;;;;;;;;;25.04;56.42;95395.53;5450017;26;8198;-56
2024/04/13 04:14:05;;;;;;;;;;;;;;;25.09;52.17;95394.88;5433856;26;8941;-56
2024/04/13 04:16:55;;;;;;;;;;;;;;;25.16;50.37;95399.97;5432549;26;7437;-57
2024/04/13 04:19:23;;;;;;;;;;;;;;;25.21;50.54;95379.97;5440032;26;7286;-58
2024/04/13 04:22:00;;;;;;;;;;;;;;;24.78;45.75;95373.47;5447476;26;7210;-57
2024/04/13 04:24:28;;;;;;;;;;;;;;;24.45;45.31;95375.75;5464051;26;7314;-57
2024/04/13 04:27:05;;;;;;;;;;;;;;;24.15;45.23;95375.09;5435449;26;7617;-57
2024/04/13 04:29:40;;;;;;;;;;;;;;;23.90;45.46;95381.94;5412830;26;7040;-57
2024/04/13 04:32:08;;;;;;;;;;;;;;;23.77;45.77;95380.72;5442704;26;7395;-57
2024/04/13 04:34:44;;;;;;;;;;;;;;;23.62;45.56;95374.50;5448927;26;7296;-57
2024/04/13 04:37:11;;;;;;;;;;;;;;;23.52;45.56;95378.53;5460783;26;7465;-57
2024/04/13 04:39:39;;;;;;;;;;;;;;;23.52;45.64;95384.03;5413861;26;8844;-57
2024/04/13 04:42:08;;;;;;;;;;;;;;;23.45;45.80;95385.16;5446491;26;7656;-57
2024/04/13 04:45:25;;;;;;;;;;;;;;;23.44;45.93;95391.13;5411960;26;9504;-57
2024/04/13 04:48:08;;;;;;;;;;;;;;;23.37;45.72;95392.28;5432029;26;7539;-57
2024/04/13 04:50:34;;;;;;;;;;;;;;;23.33;45.77;95391.69;5389258;26;9541;-57
2024/04/13 04:53:46;;;;;;;;;;;;;;;23.37;46.08;95403.25;5455053;26;7156;-57
2024/04/13 04:56:34;;;;;;;;;;;;;;;23.30;45.83;95387.13;5277210;27;7073;-57
2024/04/13 04:59:15;;;;;;;;;;;;;;;23.35;45.75;95397.47;5332311;26;7285;-57
2024/04/13 05:01:51;;;;;;;;;;;;;;;23.36;45.63;95398.25;5317159;26;7045;-57
2024/04/13 05:04:36;;;;;;;;;;;;;;;23.30;45.83;95397.31;5341637;26;7064;-57
2024/04/13 05:07:33;;;;;;;;;;;;;;;23.31;45.72;95393.38;5312777;26;7328;-57
2024/04/13 05:10:08;;;;;;;;;;;;;;;23.30;45.61;95389.09;5215219;27;7431;-57
2024/04/13 05:12:48;;;;;;;;;;;;;;;23.31;45.63;95393.38;5276735;27;9448;-57
2024/04/13 05:15:33;;;;;;;;;;;;;;;23.26;45.91;95394.78;5237554;27;7327;-57
2024/04/13 05:18:32;;;;;;;;;;;;;;;23.25;45.34;95399.50;5248634;27;7255;-57
2024/04/13 05:21:12;;;;;;;;;;;;;;;23.18;45.50;95393.63;5270528;27;7258;-57
2024/04/13 05:23:57;;;;;;;;;;;;;;;23.23;45.68;95401.19;5246696;27;8439;-57
2024/04/13 05:26:41;;;;;;;;;;;;;;;23.17;45.87;95401.09;5264294;27;7254;-57
2024/04/13 05:29:13;;;;;;;;;;;;;;;23.17;45.28;95411.31;5236418;27;7898;-58
2024/04/13 05:31:42;;;;;;;;;;;;;;;23.13;45.84;95405.25;5258581;27;6973;-57
2024/04/13 05:34:34;;;;;;;;;;;;;;;23.22;45.68;95418.91;5314748;26;7236;-57
2024/04/13 05:37:00;;;;;;;;;;;;;;;23.14;45.64;95399.28;5338509;26;7358;-57
2024/04/13 05:39:29;;;;;;;;;;;;;;;23.17;45.84;95412.09;5337666;26;9805;-57
2024/04/13 05:42:20;;;;;;;;;;;;;;;23.19;46.02;95409.63;5309886;26;7041;-58
2024/04/13 05:44:47;;;;;;;;;;;;;;;23.13;45.85;95406.03;5337293;26;7086;-58
2024/04/13 05:47:20;;;;;;;;;;;;;;;23.11;46.02;95408.47;5420735;26;7816;-57
2024/04/13 05:50:17;;;;;;;;;;;;;;;23.18;45.92;95419.06;5447725;26;7343;-57
2024/04/13 05:53:02;;;;;;;;;;;;;;;23.18;45.79;95429.31;5319153;26;7086;-57
2024/04/13 05:55:28;;;;;;;;;;;;;;;23.13;45.53;95416.25;5341427;26;7053;-58
2024/04/13 05:58:00;;;;;;;;;;;;;;;23.15;45.57;95414.53;5346203;26;7337;-57
2024/04/13 06:00:29;;;;;;;;;;;;;;;23.14;45.92;95417.75;5338596;26;7663;-57
2024/04/13 06:02:58;;;;;;;;;;;;;;;23.17;45.93;95425.81;5361032;26;7270;-58
2024/04/13 06:05:28;;;;;;;;;;;;;;;23.19;46.00;95417.09;5368782;26;7496;-57
2024/04/13 06:08:05;;;;;;;;;;;;;;;23.22;45.96;95421.66;5356068;26;7074;-57
2024/04/13 06:10:37;;;;;;;;;;;;;;;23.23;45.91;95431.38;5360759;26;7153;-57
2024/04/13 06:13:16;;;;;;;;;;;;;;;23.29;45.88;95439.75;5354509;26;7329;-60
2024/04/13 06:15:51;;;;;;;;;;;;;;;23.30;46.05;95433.78;5371620;26;7302;-61
2024/04/13 06:18:27;;;;;;;;;;;;;;;23.33;45.80;95434.81;5351697;26;7153;-61
2024/04/13 06:21:03;;;;;;;;;;;;;;;23.33;45.89;95434.81;5361719;26;7063;-61
2024/04/13 06:23:31;;;;;;;;;;;;;;;23.25;44.66;95424.22;5364039;26;7588;-61
2024/04/13 06:26:00;;;;;;;;;;;;;;;23.21;45.06;95414.63;5366620;26;7311;-63
2024/04/13 06:28:26;;;;;;;;;;;;;;;23.29;44.79;95428.78;5378370;26;7462;-62
2024/04/13 06:30:53;;;;;;;;;;;;;;;23.25;46.44;95418.72;5475406;26;7450;-63
2024/04/13 06:33:21;;;;;;;;;;;;;;;23.26;47.49;95408.50;5457412;26;7112;-63
2024/04/13 06:35:54;;;;;;;;;;;;;;;23.41;47.33;95414.03;5458747;26;6993;-63
2024/04/13 06:38:26;;;;;;;;;;;;;;;23.82;70.26;95432.25;5421731;26;7101;-63
2024/04/13 06:40:54;;;;;;;;;;;;;;;24.32;72.49;95424.81;5445056;26;7475;-63
2024/04/13 06:43:22;;;;;;;;;;;;;;;24.81;73.35;95424.81;5431918;26;7109;-63
2024/04/13 06:45:49;;;;;;;;;;;;;;;25.22;74.29;95428.31;5464730;26;7266;-63
2024/04/13 06:48:18;;;;;;;;;;;;;;;25.62;73.34;95433.75;5461764;26;7315;-63
2024/04/13 06:50:44;;;;;;;;;;;;;;;25.99;72.83;95431.84;5449285;26;7635;-63
2024/04/13 06:53:10;;;;;;;;;;;;;;;26.29;70.91;95428.84;5398385;26;7480;-60
2024/04/13 06:55:41;;;;;;;;;;;;;;;26.44;68.39;95412.91;5435689;26;7349;-60
2024/04/13 06:58:12;;;;;;;;;;;;;;;26.53;66.38;95401.69;5459994;26;7812;-62
2024/04/13 07:00:39;;;;;;;;;;;;;;;26.63;63.69;95405.75;5423104;26;7466;-62
2024/04/13 07:03:05;;;;;;;;;;;;;;;26.67;58.04;95414.53;5409881;26;7090;-62
2024/04/13 07:05:31;;;;;;;;;;;;;;;26.58;52.33;95417.50;5411813;26;8196;-61
2024/04/13 07:07:57;;;;;;;;;;;;;;;26.46;57.43;95419.47;5450150;26;7601;-63
2024/04/13 07:10:28;;;;;;;;;;;;;;;26.46;60.97;95424.97;5432825;26;7542;-63
2024/04/13 07:12:57;;;;;;;;;;;;;;;26.46;54.41;95413.94;5467839;26;7304;-62
2024/04/13 07:15:23;;;;;;;;;;;;;;;26.41;51.78;95406.38;5431992;26;7016;-61
2024/04/13 07:17:52;;;;;;;;;;;;;;;26.25;50.22;95404.28;5428608;26;7832;-62
2024/04/13 07:20:19;;;;;;;;;;;;;;;26.11;47.93;95388.63;5463484;26;7316;-62
2024/04/13 07:22:47;;;;;;;;;;;;;;;25.39;45.11;95390.69;5425268;26;9164;-57
2024/04/13 07:25:19;;;;;;;;;;;;;;;24.80;45.57;95397.75;5433983;26;9419;-57
2024/04/13 07:27:46;;;;;;;;;;;;;;;24.46;45.84;95397.31;5413800;26;7057;-58
2024/04/13 07:30:13;;;;;;;;;;;;;;;24.22;46.21;95385.72;5430289;26;7017;-58
2024/04/13 07:32:43;;;;;;;;;;;;;;;24.14;45.90;95397.56;5428119;26;8996;-58
2024/04/13 07:35:19;;;;;;;;;;;;;;;24.00;46.11;95390.84;5445216;26;7625;-58
2024/04/13 07:37:45;;;;;;;;;;;;;;;23.89;45.93;95398.91;5418034;26;7070;-58
2024/04/13 07:40:11;;;;;;;;;;;;;;;23.80;46.36;95390.75;5432377;26;9262;-58
2024/04/13 07:42:43;;;;;;;;;;;;;;;23.71;46.27;95385.34;5399304;26;7215;-58
2024/04/13 07:45:20;;;;;;;;;;;;;;;23.69;46.01;95385.06;5445287;26;7700;-58
2024/04/13 07:47:57;;;;;;;;;;;;;;;23.65;46.33;95387.25;5438784;26;7058;-58
2024/04/13 07:50:24;;;;;;;;;;;;;;;23.64;46.10;95385.75;5422021;26;7141;-58
2024/04/13 07:52:51;;;;;;;;;;;;;;;23.54;46.55;95374.09;5408343;26;7110;-58
2024/04/13 07:55:26;;;;;;;;;;;;;;;23.56;46.21;95381.84;5440357;26;7240;-58
2024/04/13 07:58:19;;;;;;;;;;;;;;;23.51;46.23;95386.00;5448277;26;7048;-58
2024/04/13 08:00:56;;;;;;;;;;;;;;;23.40;46.29;95371.34;5418252;26;7473;-59
2024/04/13 08:03:29;;;;;;;;;;;;;;;23.43;45.82;95379.38;5448503;26;7393;-58
2024/04/13 08:05:56;;;;;;;;;;;;;;;23.39;46.82;95378.81;5448781;26;7299;-58
2024/04/13 08:08:36;;;;;;;;;;;;;;;23.37;46.14;95375.03;5426957;26;7114;-58
2024/04/13 08:11:12;;;;;;;;;;;;;;;23.42;46.07;95377.91;5444393;26;8588;-58
2024/04/13 08:13:49;;;;;;;;;;;;;;;23.40;45.70;95368.63;5447980;26;8951;-60
2024/04/13 08:16:24;;;;;;;;;;;;;;;23.38;45.88;95360.81;5416878;26;8060;-59
2024/04/13 08:19:00;;;;;;;;;;;;;;;23.38;45.88;95365.59;5467713;26;7117;-59
2024/04/13 08:21:37;;;;;;;;;;;;;;;23.36;45.77;95362.56;5451515;26;7978;-58
2024/04/13 08:24:23;;;;;;;;;;;;;;;23.42;45.49;95366.16;5439615;26;7487;-59
2024/04/13 08:26:51;;;;;;;;;;;;;;;23.42;45.97;95366.16;5450073;26;7358;-59
2024/04/13 08:29:33;;;;;;;;;;;;;;;23.43;46.21;95367.66;5416179;26;7436;-59
2024/04/13 08:32:09;;;;;;;;;;;;;;;23.42;45.78;95377.13;5448970;26;7286;-59
2024/04/13 08:34:36;;;;;;;;;;;;;;;23.44;46.09;95371.91;5449084;26;7353;-59
2024/04/13 08:37:14;;;;;;;;;;;;;;;23.40;45.62;95368.63;5448398;26;7319;-59
2024/04/13 08:39:43;;;;;;;;;;;;;;;23.34;45.49;95354.03;5480355;26;7109;-59
2024/04/13 08:42:11;;;;;;;;;;;;;;;23.47;45.86;95366.22;5485382;26;7177;-59
2024/04/13 08:44:39;;;;;;;;;;;;;;;23.42;45.98;95361.41;5452762;26;7077;-59
2024/04/13 08:47:07;;;;;;;;;;;;;;;23.44;45.19;95360.94;5484646;26;6962;-59
2024/04/13 08:49:40;;;;;;;;;;;;;;;23.43;44.92;95367.66;5453482;26;7151;-59
2024/04/13 08:52:20;;;;;;;;;;;;;;;23.49;45.07;95360.28;5412292;26;7889;-59
2024/04/13 08:54:48;;;;;;;;;;;;;;;23.47;45.17;95362.75;5417703;26;7322;-59
2024/04/13 08:57:46;;;;;;;;;;;;;;;23.51;45.64;95371.56;5441658;26;7368;-59
2024/04/13 09:00:28;;;;;;;;;;;;;;;23.54;45.11;95365.09;5373507;26;8913;-59
2024/04/13 09:03:29;;;;;;;;;;;;;;;23.55;44.92;95367.38;5373834;26;7336;-60
2024/04/13 09:06:05;;;;;;;;;;;;;;;23.51;44.38;95363.31;5270344;27;7339;-58
2024/04/13 09:08:42;;;;;;;;;;;;;;;23.59;45.51;95376.19;5242242;27;7109;-58
2024/04/13 09:11:22;;;;;;;;;;;;;;;23.53;44.83;95363.59;5230016;27;8990;-60
2024/04/13 09:13:56;;;;;;;;;;;;;;;23.55;44.71;95364.66;5241704;27;7199;-66
2024/04/13 09:16:48;;;;;;;;;;;;;;;23.66;44.40;95372.31;5270848;27;7330;-65
2024/04/13 09:19:55;;;;;;;;;;;;;;;23.66;44.22;95375.06;5271146;27;7224;-65
2024/04/13 09:22:23;;;;;;;;;;;;;;;23.67;44.54;95373.81;5171523;27;7924;-65
2024/04/13 09:25:01;;;;;;;;;;;;;;;23.65;44.58;95365.28;5166120;27;7579;-65
2024/04/13 09:27:34;;;;;;;;;;;;;;;23.65;44.32;95357.03;5171060;27;8992;-65
2024/04/13 09:30:32;;;;;;;;;;;;;;;23.72;43.80;95373.16;5170725;27;7912;-64
2024/04/13 09:33:21;;;;;;;;;;;;;;;23.73;43.66;95360.91;5138414;27;7671;-65
2024/04/13 09:35:57;;;;;;;;;;;;;;;23.67;43.54;95360.06;5144349;27;7101;-65
2024/04/13 09:38:45;;;;;;;;;;;;;;;23.76;43.96;95366.22;5204327;27;7316;-65
2024/04/13 09:41:13;;;;;;;;;;;;;;;23.71;43.49;95357.88;5225987;26;7076;-62
2024/04/13 09:43:40;;;;;;;;;;;;;;;23.70;43.92;95356.38;5344045;26;7271;-63
2024/04/13 09:46:08;;;;;;;;;;;;;;;23.72;44.02;95351.19;5407568;26;7301;-63
2024/04/13 09:48:46;;;;;;;;;;;;;;;23.75;43.86;95355.72;5409175;26;7612;-63
2024/04/13 09:51:13;;;;;;;;;;;;;;;23.74;43.66;95352.22;5405006;26;7017;-64
2024/04/13 09:53:42;;;;;;;;;;;;;;;23.76;43.48;95358.00;5367181;26;7388;-63
2024/04/13 09:56:12;;;;;;;;;;;;;;;23.76;43.36;95346.25;5402063;26;7008;-64
2024/04/13 09:58:41;;;;;;;;;;;;;;;23.75;43.29;95348.22;5416223;26;7101;-64
2024/04/13 10:01:26;;;;;;;;;;;;;;;23.69;43.32;95336.41;5451169;26;7460;-63
2024/04/13 10:03:59;;;;;;;;;;;;;;;23.73;43.80;95341.69;5419917;26;7081;-63
2024/04/13 10:06:39;;;;;;;;;;;;;;;23.68;43.36;95331.38;5453323;26;9602;-63
2024/04/13 10:09:12;;;;;;;;;;;;;;;23.69;43.04;95327.41;5421942;26;7717;-66
2024/04/13 10:11:50;;;;;;;;;;;;;;;23.69;43.67;95328.16;5404316;26;7120;-63
2024/04/13 10:14:41;;;;;;;;;;;;;;;23.71;43.36;95320.19;5434423;26;7418;-64
2024/04/13 10:17:20;;;;;;;;;;;;;;;23.70;43.26;95318.69;5386138;26;7477;-64
2024/04/13 10:19:48;;;;;;;;;;;;;;;23.62;43.15;95308.56;5413201;26;7770;-63
2024/04/13 10:22:19;;;;;;;;;;;;;;;23.68;42.75;95312.94;5458338;26;7534;-63
2024/04/13 10:24:48;;;;;;;;;;;;;;;23.65;43.25;95310.34;5458292;26;7104;-63
2024/04/13 10:27:21;;;;;;;;;;;;;;;23.69;42.78;95321.91;5432091;26;7964;-63
2024/04/13 10:29:51;;;;;;;;;;;;;;;23.68;42.89;95314.91;5458889;26;9454;-63
2024/04/13 10:32:34;;;;;;;;;;;;;;;23.61;43.10;95307.06;5450175;26;7107;-64
2024/04/13 10:35:14;;;;;;;;;;;;;;;23.60;43.07;95305.53;5449343;26;7706;-63
2024/04/13 10:38:01;;;;;;;;;;;;;;;23.66;42.72;95306.38;5442600;26;7060;-63
2024/04/13 10:40:36;;;;;;;;;;;;;;;23.60;42.59;95300.03;5475512;26;7535;-64
2024/04/13 10:43:04;;;;;;;;;;;;;;;23.54;42.94;95285.47;5454146;26;6994;-63
2024/04/13 10:45:30;;;;;;;;;;;;;;;23.65;42.60;95307.59;5447745;26;7215;-63
2024/04/13 10:48:10;;;;;;;;;;;;;;;23.66;42.52;95300.91;5435083;26;8010;-64
2024/04/13 10:50:55;;;;;;;;;;;;;;;23.71;42.50;95305.69;5414960;26;7393;-64
2024/04/13 10:53:28;;;;;;;;;;;;;;;23.70;42.85;95295.97;5452171;26;6971;-59
2024/04/13 10:56:10;;;;;;;;;;;;;;;23.77;43.00;95298.31;5447560;26;9488;-59
2024/04/13 10:58:49;;;;;;;;;;;;;;;23.74;42.89;95289.03;5454255;26;8987;-59
2024/04/13 11:01:19;;;;;;;;;;;;;;;23.78;43.34;95294.31;5417165;26;7219;-60
2024/04/13 11:03:47;;;;;;;;;;;;;;;23.78;43.06;95283.34;5460521;26;8800;-59
2024/04/13 11:06:14;;;;;;;;;;;;;;;23.78;43.18;95280.59;5416895;26;7129;-59
2024/04/13 11:08:42;;;;;;;;;;;;;;;23.85;42.57;95282.94;5387354;26;7036;-59
2024/04/13 11:11:13;;;;;;;;;;;;;;;23.88;42.00;95293.00;5474587;26;7002;-59
2024/04/13 11:13:41;;;;;;;;;;;;;;;23.89;42.47;95284.28;5430836;26;7836;-59
2024/04/13 11:16:32;;;;;;;;;;;;;;;23.93;42.83;95273.84;5467900;26;7067;-59
2024/04/13 11:19:10;;;;;;;;;;;;;;;23.90;42.37;95263.78;5451798;26;7043;-59
2024/04/13 11:21:38;;;;;;;;;;;;;;;23.93;42.30;95262.84;5414778;26;9476;-60
2024/04/13 11:24:13;;;;;;;;;;;;;;;23.96;41.84;95263.88;5444674;26;8985;-59
2024/04/13 11:26:45;;;;;;;;;;;;;;;23.99;42.18;95271.16;5427405;26;7541;-60
2024/04/13 11:29:22;;;;;;;;;;;;;;;24.01;42.30;95265.94;5416541;26;7692;-59
2024/04/13 11:32:02;;;;;;;;;;;;;;;24.01;41.16;95265.19;5469627;26;7628;-59
2024/04/13 11:35:05;;;;;;;;;;;;;;;24.01;41.13;95259.69;5420974;26;7348;-59
2024/04/13 11:37:32;;;;;;;;;;;;;;;24.02;40.99;95264.69;5424209;26;7113;-59
2024/04/13 11:40:00;;;;;;;;;;;;;;;24.00;40.80;95256.19;5431552;26;6966;-59
2024/04/13 11:42:26;;;;;;;;;;;;;;;24.04;41.13;95248.50;5423349;26;6977;-59
2024/04/13 11:44:55;;;;;;;;;;;;;;;24.15;40.72;95251.41;5418438;26;7251;-59
2024/04/13 11:47:36;;;;;;;;;;;;;;;24.24;40.51;95251.28;5420261;26;10101;-59
2024/04/13 11:50:14;;;;;;;;;;;;;;;24.22;40.78;95239.25;5380401;26;9611;-59
2024/04/13 11:52:48;;;;;;;;;;;;;;;24.31;41.10;95252.88;5381876;26;8021;-59
2024/04/13 11:55:31;;;;;;;;;;;;;;;24.33;40.89;95242.13;5381529;26;7071;-59
2024/04/13 11:58:07;;;;;;;;;;;;;;;24.34;40.83;95244.41;5398911;26;7370;-59
2024/04/13 12:00:33;;;;;;;;;;;;;;;24.31;40.60;95237.13;5397444;26;7328;-60
2024/04/13 12:03:09;;;;;;;;;;;;;;;24.40;41.04;95245.22;5362319;26;7330;-62
2024/04/13 12:05:35;;;;;;;;;;;;;;;24.42;41.05;95242.00;5384362;26;7235;-61
2024/04/13 12:08:13;;;;;;;;;;;;;;;24.43;40.49;95244.25;5397859;26;7059;-61
2024/04/13 12:10:51;;;;;;;;;;;;;;;24.42;40.47;95245.50;5376333;26;7339;-62
2024/04/13 12:13:17;;;;;;;;;;;;;;;24.43;40.61;95238.00;5406192;26;7383;-61
2024/04/13 12:16:00;;;;;;;;;;;;;;;24.42;40.91;95234.50;5423353;26;7183;-61
2024/04/13 12:18:27;;;;;;;;;;;;;;;24.37;40.57;95229.69;5447444;26;8718;-61
2024/04/13 12:21:07;;;;;;;;;;;;;;;24.39;40.75;95227.22;5414878;26;7035;-62
2024/04/13 12:23:55;;;;;;;;;;;;;;;24.45;40.61;95232.75;5413912;26;7058;-62
2024/04/13 12:26:24;;;;;;;;;;;;;;;24.41;40.81;95222.00;5412325;26;7373;-61
2024/04/13 12:28:53;;;;;;;;;;;;;;;24.43;40.58;95230.50;5424215;26;7277;-62
2024/04/13 12:31:27;;;;;;;;;;;;;;;24.49;40.96;95236.81;5411209;26;7485;-62
2024/04/13 12:33:59;;;;;;;;;;;;;;;24.48;40.71;95229.81;5386385;26;6949;-62
2024/04/13 12:36:27;;;;;;;;;;;;;;;24.45;41.02;95208.78;5448047;26;7101;-63
2024/04/13 12:39:02;;;;;;;;;;;;;;;24.52;41.01;95219.38;5417039;26;7125;-65
2024/04/13 12:41:28;;;;;;;;;;;;;;;24.51;40.66;95206.84;5390293;26;7205;-63
2024/04/13 12:43:54;;;;;;;;;;;;;;;24.55;41.18;95206.66;5438319;26;9190;-63
2024/04/13 12:46:23;;;;;;;;;;;;;;;24.51;41.08;95190.34;5430625;26;7429;-61
2024/04/13 12:48:55;;;;;;;;;;;;;;;24.52;41.08;95189.13;5446269;26;7105;-61
2024/04/13 12:51:27;;;;;;;;;;;;;;;24.57;40.64;95182.91;5405461;26;7387;-61
2024/04/13 12:53:53;;;;;;;;;;;;;;;24.62;40.41;95178.72;5425397;26;8157;-61
2024/04/13 12:56:19;;;;;;;;;;;;;;;24.66;41.02;95185.50;5398543;26;7624;-62
2024/04/13 12:58:47;;;;;;;;;;;;;;;24.68;40.67;95179.53;5436514;26;7661;-60
2024/04/13 13:01:18;;;;;;;;;;;;;;;24.67;40.78;95176.00;5424734;26;7668;-62
2024/04/13 13:03:44;;;;;;;;;;;;;;;24.78;40.37;95180.88;5432135;26;7389;-62
2024/04/13 13:06:11;;;;;;;;;;;;;;;24.75;40.04;95175.63;5440769;26;8601;-62
2024/04/13 13:08:38;;;;;;;;;;;;;;;24.81;39.79;95177.19;5410008;26;7577;-62
2024/04/13 13:11:05;;;;;;;;;;;;;;;24.83;39.54;95158.19;5414117;26;8503;-62
2024/04/13 13:13:32;;;;;;;;;;;;;;;24.86;39.78;95157.19;5421279;26;9352;-61
2024/04/13 13:16:06;;;;;;;;;;;;;;;24.90;39.22;95155.00;5406031;26;7129;-63
2024/04/13 13:18:35;;;;;;;;;;;;;;;24.94;39.53;95149.25;5437804;26;7368;-62
2024/04/13 13:21:04;;;;;;;;;;;;;;;24.91;39.55;95145.47;5447041;26;7172;-61
2024/04/13 13:23:35;;;;;;;;;;;;;;;24.92;39.19;95140.75;5438941;26;7225;-61
2024/04/13 13:26:03;;;;;;;;;;;;;;;25.03;39.61;95149.09;5461806;26;7134;-61
2024/04/13 13:29:03;;;;;;;;;;;;;;;25.12;39.50;95144.13;5447617;26;6897;-61
2024/04/13 13:31:35;;;;;;;;;;;;;;;25.12;39.49;95137.91;5396350;26;7486;-61
2024/04/13 13:34:05;;;;;;;;;;;;;;;25.14;39.29;95135.41;5402766;26;7222;-61
2024/04/13 13:36:49;;;;;;;;;;;;;;;25.20;39.56;95136.97;5364364;26;7821;-61
2024/04/13 13:39:28;;;;;;;;;;;;;;;25.14;39.21;95125.13;5373550;26;7818;-62